Chinook, Montana
Current Conditions -  °F | °C
As of 6:53 AM on Friday 19 Dec 2014 (Local Time) from KHVR Reporting Station
Clear Clear  
Wind Chill: 12°   Ceiling: Unl
Heat Index: 19°   Visibility: 10mi
Dew Point: 17°   Wind: 5mph
Humidity: 92%   Direction: 300°WNW
Pressure: 29.88"   Gusts: NA
Location:  48.59°N, 109.23°W
Report Text: KHVR 191353Z AUTO 30004KT 10SM CLR M07/M08 A2988 RMK AO2 SLP154 T10721083
Loading
Personal Weather Stations






























Interactive Weather Map New forecast layout! Learn more

10-Day Weather Forecast

Advertisements
Track Severe Weather on mobile